sensor_id;sensor_type;location;lat;lon;timestamp;P1;durP1;ratioP1;P2;durP2;ratioP2
62151;SDS011;48139;47.474;19.034;2023-12-20T04:47:26;34.22;;;15.52;;
62151;SDS011;48139;47.474;19.034;2023-12-20T04:50:29;35.10;;;18.40;;
62151;SDS011;48139;47.474;19.034;2023-12-20T04:53:31;36.40;;;17.17;;
62151;SDS011;48139;47.474;19.034;2023-12-20T04:56:34;29.42;;;19.23;;
62151;SDS011;48139;47.474;19.034;2023-12-20T04:59:37;38.55;;;17.85;;
62151;SDS011;48139;47.474;19.034;2023-12-20T05:02:40;44.20;;;17.23;;
62151;SDS011;48139;47.474;19.034;2023-12-20T05:05:42;41.83;;;16.55;;
62151;SDS011;48139;47.474;19.034;2023-12-20T05:08:45;36.53;;;17.67;;
62151;SDS011;48139;47.474;19.034;2023-12-20T05:11:48;41.80;;;19.50;;
62151;SDS011;48139;47.474;19.034;2023-12-20T05:14:51;38.47;;;17.27;;
62151;SDS011;48139;47.474;19.034;2023-12-20T05:17:54;40.97;;;20.10;;
62151;SDS011;48139;47.474;19.034;2023-12-20T05:20:57;41.75;;;19.90;;
62151;SDS011;48139;47.474;19.034;2023-12-20T05:24:00;35.28;;;19.83;;
62151;SDS011;48139;47.474;19.034;2023-12-20T05:27:03;33.97;;;16.60;;
62151;SDS011;48139;47.474;19.034;2023-12-20T05:30:06;31.10;;;17.33;;
62151;SDS011;48139;47.474;19.034;2023-12-20T05:33:10;33.97;;;17.73;;
62151;SDS011;48139;47.474;19.034;2023-12-20T05:36:12;32.27;;;19.13;;
62151;SDS011;48139;47.474;19.034;2023-12-20T05:39:17;36.47;;;17.40;;
62151;SDS011;48139;47.474;19.034;2023-12-20T05:42:20;42.90;;;19.37;;
62151;SDS011;48139;47.474;19.034;2023-12-20T05:45:23;34.10;;;19.30;;
62151;SDS011;48139;47.474;19.034;2023-12-20T05:48:25;31.52;;;17.02;;
62151;SDS011;48139;47.474;19.034;2023-12-20T05:51:28;33.42;;;16.20;;
62151;SDS011;48139;47.474;19.034;2023-12-20T05:54:31;38.90;;;19.87;;
62151;SDS011;48139;47.474;19.034;2023-12-20T05:57:34;35.42;;;17.20;;
62151;SDS011;48139;47.474;19.034;2023-12-20T06:00:37;31.37;;;17.08;;
62151;SDS011;48139;47.474;19.034;2023-12-20T06:03:41;42.30;;;19.67;;
62151;SDS011;48139;47.474;19.034;2023-12-20T06:06:44;28.52;;;16.98;;
62151;SDS011;48139;47.474;19.034;2023-12-20T06:09:47;38.88;;;21.55;;
62151;SDS011;48139;47.474;19.034;2023-12-20T06:12:50;33.93;;;19.50;;
62151;SDS011;48139;47.474;19.034;2023-12-20T06:15:54;35.13;;;20.00;;
62151;SDS011;48139;47.474;19.034;2023-12-20T06:18:58;40.20;;;17.98;;
62151;SDS011;48139;47.474;19.034;2023-12-20T06:22:01;38.97;;;20.65;;
62151;SDS011;48139;47.474;19.034;2023-12-20T06:25:04;34.13;;;17.85;;
62151;SDS011;48139;47.474;19.034;2023-12-20T06:28:08;39.15;;;21.60;;
62151;SDS011;48139;47.474;19.034;2023-12-20T06:31:12;33.42;;;17.58;;
62151;SDS011;48139;47.474;19.034;2023-12-20T06:34:15;50.70;;;23.50;;
62151;SDS011;48139;47.474;19.034;2023-12-20T06:37:18;37.88;;;20.27;;
62151;SDS011;48139;47.474;19.034;2023-12-20T06:40:21;41.65;;;20.42;;
62151;SDS011;48139;47.474;19.034;2023-12-20T06:43:23;40.95;;;16.70;;
62151;SDS011;48139;47.474;19.034;2023-12-20T06:46:45;42.75;;;19.52;;
62151;SDS011;48139;47.474;19.034;2023-12-20T06:49:48;33.60;;;18.15;;
62151;SDS011;48139;47.474;19.034;2023-12-20T06:52:51;44.05;;;16.87;;
62151;SDS011;48139;47.474;19.034;2023-12-20T06:55:55;35.60;;;18.85;;
62151;SDS011;48139;47.474;19.034;2023-12-20T06:59:00;43.22;;;18.23;;
62151;SDS011;48139;47.474;19.034;2023-12-20T07:02:03;36.92;;;17.80;;
62151;SDS011;48139;47.474;19.034;2023-12-20T07:05:07;33.45;;;16.27;;
62151;SDS011;48139;47.474;19.034;2023-12-20T07:08:12;34.78;;;17.70;;
62151;SDS011;48139;47.474;19.034;2023-12-20T07:11:17;37.72;;;20.92;;
62151;SDS011;48139;47.474;19.034;2023-12-20T07:14:19;41.42;;;21.42;;
62151;SDS011;48139;47.474;19.034;2023-12-20T07:17:22;40.80;;;19.93;;
62151;SDS011;48139;47.474;19.034;2023-12-20T07:20:25;36.35;;;19.50;;
62151;SDS011;48139;47.474;19.034;2023-12-20T07:23:28;40.67;;;18.30;;
62151;SDS011;48139;47.474;19.034;2023-12-20T07:26:30;41.37;;;19.98;;
62151;SDS011;48139;47.474;19.034;2023-12-20T07:29:33;34.40;;;18.12;;
62151;SDS011;48139;47.474;19.034;2023-12-20T07:32:36;48.00;;;22.92;;
62151;SDS011;48139;47.474;19.034;2023-12-20T07:35:39;37.75;;;21.02;;
62151;SDS011;48139;47.474;19.034;2023-12-20T07:38:42;49.43;;;23.30;;
62151;SDS011;48139;47.474;19.034;2023-12-20T07:41:46;39.75;;;22.33;;
62151;SDS011;48139;47.474;19.034;2023-12-20T07:44:49;47.30;;;23.17;;
62151;SDS011;48139;47.474;19.034;2023-12-20T07:47:52;47.62;;;24.25;;
62151;SDS011;48139;47.474;19.034;2023-12-20T07:50:55;44.38;;;21.17;;
62151;SDS011;48139;47.474;19.034;2023-12-20T07:53:58;43.22;;;23.45;;
62151;SDS011;48139;47.474;19.034;2023-12-20T07:57:01;40.60;;;19.50;;
62151;SDS011;48139;47.474;19.034;2023-12-20T08:00:04;44.70;;;24.83;;
62151;SDS011;48139;47.474;19.034;2023-12-20T08:03:10;41.55;;;19.90;;
62151;SDS011;48139;47.474;19.034;2023-12-20T08:06:12;56.60;;;26.67;;
62151;SDS011;48139;47.474;19.034;2023-12-20T08:09:15;39.22;;;21.42;;
62151;SDS011;48139;47.474;19.034;2023-12-20T08:12:18;40.10;;;23.58;;
62151;SDS011;48139;47.474;19.034;2023-12-20T08:15:20;52.63;;;25.47;;
62151;SDS011;48139;47.474;19.034;2023-12-20T08:18:23;44.80;;;24.57;;
62151;SDS011;48139;47.474;19.034;2023-12-20T08:21:26;46.00;;;24.35;;
62151;SDS011;48139;47.474;19.034;2023-12-20T08:24:29;50.30;;;25.15;;
62151;SDS011;48139;47.474;19.034;2023-12-20T08:27:32;48.95;;;25.83;;
62151;SDS011;48139;47.474;19.034;2023-12-20T08:30:36;47.53;;;22.55;;
62151;SDS011;48139;47.474;19.034;2023-12-20T08:33:39;48.70;;;23.67;;
62151;SDS011;48139;47.474;19.034;2023-12-20T08:36:41;47.00;;;24.70;;
62151;SDS011;48139;47.474;19.034;2023-12-20T08:39:45;34.13;;;21.92;;
62151;SDS011;48139;47.474;19.034;2023-12-20T08:42:47;47.78;;;27.52;;
62151;SDS011;48139;47.474;19.034;2023-12-20T08:45:50;43.35;;;20.40;;
62151;SDS011;48139;47.474;19.034;2023-12-20T08:48:53;45.58;;;21.73;;
62151;SDS011;48139;47.474;19.034;2023-12-20T08:51:56;47.55;;;26.10;;
62151;SDS011;48139;47.474;19.034;2023-12-20T08:54:58;46.60;;;23.55;;
62151;SDS011;48139;47.474;19.034;2023-12-20T08:58:01;54.17;;;26.50;;
62151;SDS011;48139;47.474;19.034;2023-12-20T09:01:04;49.03;;;27.33;;
62151;SDS011;48139;47.474;19.034;2023-12-20T09:04:07;51.97;;;26.25;;
62151;SDS011;48139;47.474;19.034;2023-12-20T09:07:22;55.92;;;27.08;;
62151;SDS011;48139;47.474;19.034;2023-12-20T09:10:26;47.55;;;25.65;;
62151;SDS011;48139;47.474;19.034;2023-12-20T09:13:29;48.78;;;27.80;;
62151;SDS011;48139;47.474;19.034;2023-12-20T09:16:34;49.40;;;24.52;;
62151;SDS011;48139;47.474;19.034;2023-12-20T09:19:37;40.70;;;20.33;;
62151;SDS011;48139;47.474;19.034;2023-12-20T09:22:41;49.67;;;21.05;;
62151;SDS011;48139;47.474;19.034;2023-12-20T09:25:44;45.53;;;23.25;;
62151;SDS011;48139;47.474;19.034;2023-12-20T09:28:47;52.15;;;25.55;;
62151;SDS011;48139;47.474;19.034;2023-12-20T09:31:50;40.72;;;24.02;;
62151;SDS011;48139;47.474;19.034;2023-12-20T09:34:53;51.90;;;24.73;;
62151;SDS011;48139;47.474;19.034;2023-12-20T09:37:56;36.70;;;21.33;;
62151;SDS011;48139;47.474;19.034;2023-12-20T09:40:58;51.42;;;25.88;;
62151;SDS011;48139;47.474;19.034;2023-12-20T09:44:01;34.53;;;23.20;;
62151;SDS011;48139;47.474;19.034;2023-12-20T09:47:05;46.30;;;25.80;;
62151;SDS011;48139;47.474;19.034;2023-12-20T09:50:09;42.67;;;22.62;;
62151;SDS011;48139;47.474;19.034;2023-12-20T09:53:14;48.30;;;23.58;;
62151;SDS011;48139;47.474;19.034;2023-12-20T09:56:18;51.63;;;26.33;;
62151;SDS011;48139;47.474;19.034;2023-12-20T09:59:21;50.75;;;25.33;;
62151;SDS011;48139;47.474;19.034;2023-12-20T10:02:24;41.40;;;22.03;;
62151;SDS011;48139;47.474;19.034;2023-12-20T10:05:32;64.70;;;24.33;;
62151;SDS011;48139;47.474;19.034;2023-12-20T10:08:36;45.03;;;25.85;;
62151;SDS011;48139;47.474;19.034;2023-12-20T10:11:39;47.47;;;25.95;;
62151;SDS011;48139;47.474;19.034;2023-12-20T10:14:42;46.92;;;26.98;;
62151;SDS011;48139;47.474;19.034;2023-12-20T10:17:45;41.22;;;22.67;;
62151;SDS011;48139;47.474;19.034;2023-12-20T10:20:51;49.30;;;23.55;;
62151;SDS011;48139;47.474;19.034;2023-12-20T10:23:55;40.08;;;25.67;;
62151;SDS011;48139;47.474;19.034;2023-12-20T10:27:05;47.22;;;26.17;;
62151;SDS011;48139;47.474;19.034;2023-12-20T10:30:09;47.13;;;26.23;;
62151;SDS011;48139;47.474;19.034;2023-12-20T10:33:12;47.75;;;24.98;;
62151;SDS011;48139;47.474;19.034;2023-12-20T10:36:15;46.20;;;26.70;;
62151;SDS011;48139;47.474;19.034;2023-12-20T10:39:18;43.10;;;24.70;;
62151;SDS011;48139;47.474;19.034;2023-12-20T10:42:22;49.17;;;28.30;;
62151;SDS011;48139;47.474;19.034;2023-12-20T10:45:28;44.20;;;23.30;;
62151;SDS011;48139;47.474;19.034;2023-12-20T10:48:31;48.42;;;25.12;;
62151;SDS011;48139;47.474;19.034;2023-12-20T10:51:34;50.05;;;25.80;;
62151;SDS011;48139;47.474;19.034;2023-12-20T10:54:39;49.42;;;27.77;;
62151;SDS011;48139;47.474;19.034;2023-12-20T10:57:43;43.78;;;26.90;;
62151;SDS011;48139;47.474;19.034;2023-12-20T11:00:55;47.15;;;24.92;;
62151;SDS011;48139;47.474;19.034;2023-12-20T11:04:07;47.25;;;27.08;;
62151;SDS011;48139;47.474;19.034;2023-12-20T11:07:21;46.63;;;25.92;;
62151;SDS011;48139;47.474;19.034;2023-12-20T11:10:31;44.97;;;25.60;;
62151;SDS011;48139;47.474;19.034;2023-12-20T11:13:53;47.30;;;24.37;;
62151;SDS011;48139;47.474;19.034;2023-12-20T11:17:08;48.95;;;27.35;;
62151;SDS011;48139;47.474;19.034;2023-12-20T11:20:12;42.58;;;24.73;;
62151;SDS011;48139;47.474;19.034;2023-12-20T11:23:15;49.53;;;29.20;;
62151;SDS011;48139;47.474;19.034;2023-12-20T11:26:22;52.25;;;28.83;;
62151;SDS011;48139;47.474;19.034;2023-12-20T11:29:34;60.20;;;29.52;;
62151;SDS011;48139;47.474;19.034;2023-12-20T11:32:38;52.45;;;29.10;;
62151;SDS011;48139;47.474;19.034;2023-12-20T11:38:54;57.13;;;33.83;;
62151;SDS011;48139;47.474;19.034;2023-12-20T11:42:04;57.08;;;31.05;;
62151;SDS011;48139;47.474;19.034;2023-12-20T11:45:09;69.37;;;31.48;;
62151;SDS011;48139;47.474;19.034;2023-12-20T11:48:12;56.35;;;32.13;;
62151;SDS011;48139;47.474;19.034;2023-12-20T11:51:16;51.35;;;31.02;;
62151;SDS011;48139;47.474;19.034;2023-12-20T11:54:18;61.92;;;31.55;;
62151;SDS011;48139;47.474;19.034;2023-12-20T11:57:21;59.57;;;35.60;;
62151;SDS011;48139;47.474;19.034;2023-12-20T12:00:24;59.25;;;33.92;;
62151;SDS011;48139;47.474;19.034;2023-12-20T12:03:27;55.90;;;35.13;;
62151;SDS011;48139;47.474;19.034;2023-12-20T12:06:29;52.85;;;33.33;;
62151;SDS011;48139;47.474;19.034;2023-12-20T12:09:32;73.57;;;35.67;;
62151;SDS011;48139;47.474;19.034;2023-12-20T12:12:36;52.00;;;32.20;;
62151;SDS011;48139;47.474;19.034;2023-12-20T12:15:39;59.05;;;31.85;;
62151;SDS011;48139;47.474;19.034;2023-12-20T12:18:44;56.10;;;29.35;;
62151;SDS011;48139;47.474;19.034;2023-12-20T12:21:48;58.08;;;29.30;;
62151;SDS011;48139;47.474;19.034;2023-12-20T12:24:50;47.23;;;24.60;;
62151;SDS011;48139;47.474;19.034;2023-12-20T12:27:53;34.92;;;18.85;;
62151;SDS011;48139;47.474;19.034;2023-12-20T12:30:57;21.95;;;12.55;;
62151;SDS011;48139;47.474;19.034;2023-12-20T12:34:01;16.55;;;7.57;;
62151;SDS011;48139;47.474;19.034;2023-12-20T12:37:04;15.38;;;8.27;;
62151;SDS011;48139;47.474;19.034;2023-12-20T12:40:10;11.98;;;4.97;;
62151;SDS011;48139;47.474;19.034;2023-12-20T12:43:15;11.38;;;5.10;;
62151;SDS011;48139;47.474;19.034;2023-12-20T12:46:18;11.77;;;5.50;;
62151;SDS011;48139;47.474;19.034;2023-12-20T12:49:21;10.70;;;6.40;;
62151;SDS011;48139;47.474;19.034;2023-12-20T12:52:25;9.75;;;5.00;;
62151;SDS011;48139;47.474;19.034;2023-12-20T12:55:29;10.95;;;6.00;;
62151;SDS011;48139;47.474;19.034;2023-12-20T12:58:32;9.55;;;4.37;;
62151;SDS011;48139;47.474;19.034;2023-12-20T13:01:35;10.90;;;6.20;;
62151;SDS011;48139;47.474;19.034;2023-12-20T13:04:39;9.68;;;5.65;;
62151;SDS011;48139;47.474;19.034;2023-12-20T13:07:43;10.57;;;5.53;;
62151;SDS011;48139;47.474;19.034;2023-12-20T13:10:48;8.90;;;4.65;;
62151;SDS011;48139;47.474;19.034;2023-12-20T13:13:52;9.23;;;5.68;;
62151;SDS011;48139;47.474;19.034;2023-12-20T13:16:54;10.15;;;6.50;;
62151;SDS011;48139;47.474;19.034;2023-12-20T13:19:58;13.57;;;7.43;;
62151;SDS011;48139;47.474;19.034;2023-12-20T13:23:02;10.95;;;6.50;;
62151;SDS011;48139;47.474;19.034;2023-12-20T13:26:06;11.32;;;6.10;;
62151;SDS011;48139;47.474;19.034;2023-12-20T13:29:10;13.55;;;6.62;;
62151;SDS011;48139;47.474;19.034;2023-12-20T13:32:12;11.75;;;6.95;;
62151;SDS011;48139;47.474;19.034;2023-12-20T13:35:15;11.88;;;6.43;;
62151;SDS011;48139;47.474;19.034;2023-12-20T13:38:18;12.68;;;6.18;;
62151;SDS011;48139;47.474;19.034;2023-12-20T13:41:23;10.20;;;6.20;;
62151;SDS011;48139;47.474;19.034;2023-12-20T13:44:25;12.40;;;6.07;;
62151;SDS011;48139;47.474;19.034;2023-12-20T13:47:28;9.87;;;5.40;;
62151;SDS011;48139;47.474;19.034;2023-12-20T13:50:31;14.20;;;6.30;;
62151;SDS011;48139;47.474;19.034;2023-12-20T13:53:34;12.05;;;6.57;;
62151;SDS011;48139;47.474;19.034;2023-12-20T13:56:36;9.53;;;7.50;;
62151;SDS011;48139;47.474;19.034;2023-12-20T13:59:53;14.13;;;6.60;;
62151;SDS011;48139;47.474;19.034;2023-12-20T14:02:56;11.35;;;7.15;;
62151;SDS011;48139;47.474;19.034;2023-12-20T14:05:59;10.93;;;6.85;;
62151;SDS011;48139;47.474;19.034;2023-12-20T14:09:03;12.65;;;6.22;;
62151;SDS011;48139;47.474;19.034;2023-12-20T14:12:06;13.80;;;7.82;;
62151;SDS011;48139;47.474;19.034;2023-12-20T14:15:11;10.45;;;6.15;;
62151;SDS011;48139;47.474;19.034;2023-12-20T14:18:15;11.57;;;5.70;;
62151;SDS011;48139;47.474;19.034;2023-12-20T14:21:19;10.88;;;6.30;;
62151;SDS011;48139;47.474;19.034;2023-12-20T14:24:22;9.02;;;5.90;;
62151;SDS011;48139;47.474;19.034;2023-12-20T14:27:24;13.07;;;6.07;;
62151;SDS011;48139;47.474;19.034;2023-12-20T14:30:30;13.23;;;6.32;;
62151;SDS011;48139;47.474;19.034;2023-12-20T14:33:32;10.88;;;4.85;;
62151;SDS011;48139;47.474;19.034;2023-12-20T14:36:35;8.63;;;5.53;;
62151;SDS011;48139;47.474;19.034;2023-12-20T14:39:38;16.08;;;7.55;;
62151;SDS011;48139;47.474;19.034;2023-12-20T14:42:44;13.02;;;6.82;;
62151;SDS011;48139;47.474;19.034;2023-12-20T14:45:48;11.77;;;6.55;;
62151;SDS011;48139;47.474;19.034;2023-12-20T14:48:51;11.98;;;5.70;;
62151;SDS011;48139;47.474;19.034;2023-12-20T14:51:53;11.93;;;7.47;;
62151;SDS011;48139;47.474;19.034;2023-12-20T14:54:56;13.13;;;6.95;;
62151;SDS011;48139;47.474;19.034;2023-12-20T14:57:59;11.43;;;7.43;;
62151;SDS011;48139;47.474;19.034;2023-12-20T15:04:06;9.45;;;6.05;;
62151;SDS011;48139;47.474;19.034;2023-12-20T15:07:09;13.07;;;6.68;;
62151;SDS011;48139;47.474;19.034;2023-12-20T15:10:12;10.70;;;5.63;;
62151;SDS011;48139;47.474;19.034;2023-12-20T15:13:15;10.07;;;5.68;;
62151;SDS011;48139;47.474;19.034;2023-12-20T15:16:18;11.32;;;6.28;;
62151;SDS011;48139;47.474;19.034;2023-12-20T15:19:21;10.67;;;6.07;;
62151;SDS011;48139;47.474;19.034;2023-12-20T15:22:23;10.75;;;6.03;;
62151;SDS011;48139;47.474;19.034;2023-12-20T15:25:28;9.57;;;5.10;;
62151;SDS011;48139;47.474;19.034;2023-12-20T15:28:31;8.73;;;5.25;;
62151;SDS011;48139;47.474;19.034;2023-12-20T15:31:34;13.63;;;6.40;;
62151;SDS011;48139;47.474;19.034;2023-12-20T15:34:36;8.45;;;4.07;;
62151;SDS011;48139;47.474;19.034;2023-12-20T15:40:43;10.55;;;5.55;;
62151;SDS011;48139;47.474;19.034;2023-12-20T15:43:46;9.57;;;5.15;;
62151;SDS011;48139;47.474;19.034;2023-12-20T15:46:49;10.80;;;5.93;;
62151;SDS011;48139;47.474;19.034;2023-12-20T15:49:53;10.93;;;4.72;;
62151;SDS011;48139;47.474;19.034;2023-12-20T15:52:56;13.68;;;5.57;;
62151;SDS011;48139;47.474;19.034;2023-12-20T15:55:59;10.40;;;7.05;;
62151;SDS011;48139;47.474;19.034;2023-12-20T15:59:03;11.50;;;5.82;;
62151;SDS011;48139;47.474;19.034;2023-12-20T16:02:06;11.18;;;5.75;;
62151;SDS011;48139;47.474;19.034;2023-12-20T16:05:09;14.40;;;6.22;;
62151;SDS011;48139;47.474;19.034;2023-12-20T16:08:12;11.07;;;8.32;;
62151;SDS011;48139;47.474;19.034;2023-12-20T16:11:15;10.73;;;6.95;;
62151;SDS011;48139;47.474;19.034;2023-12-20T16:14:18;10.55;;;6.22;;
62151;SDS011;48139;47.474;19.034;2023-12-20T16:17:22;11.95;;;5.55;;
62151;SDS011;48139;47.474;19.034;2023-12-20T16:20:24;8.75;;;4.82;;
62151;SDS011;48139;47.474;19.034;2023-12-20T16:23:27;9.10;;;4.93;;
62151;SDS011;48139;47.474;19.034;2023-12-20T16:26:30;12.70;;;6.75;;
62151;SDS011;48139;47.474;19.034;2023-12-20T16:29:33;10.23;;;7.45;;
62151;SDS011;48139;47.474;19.034;2023-12-20T16:32:36;10.98;;;5.40;;
